Time;durP1;ratioP1;P1;durP2;ratioP2;P2;SDS_P1;SDS_P2;PMS_P1;PMS_P2;Temp;Humidity;BMP_temperature;BMP_pressure;BME280_temperature;BME280_humidity;BME280_pressure;Samples;Min_cycle;Max_cycle;Signal;HPM_P1;HPM_P2
2021/07/22 00:01:43;;;;;;;17.90;7.88;;;;;;;;;;5035052;28;21127;-60
2021/07/22 00:04:11;;;;;;;14.88;8.32;;;;;;;;;;5029625;28;20037;-60
2021/07/22 00:06:40;;;;;;;12.68;7.65;;;;;;;;;;5030463;28;20029;-59
2021/07/22 00:09:05;;;;;;;12.77;7.47;;;;;;;;;;5011304;28;20037;-58
2021/07/22 00:11:33;;;;;;;16.30;8.13;;;;;;;;;;5032599;28;20025;-59
2021/07/22 00:14:01;;;;;;;12.63;7.88;;;;;;;;;;5028832;28;20033;-59
2021/07/22 00:16:29;;;;;;;17.30;8.75;;;;;;;;;;5031840;28;20029;-59
2021/07/22 00:18:57;;;;;;;14.93;8.10;;;;;;;;;;5028282;28;20016;-59
2021/07/22 00:21:24;;;;;;;20.60;8.05;;;;;;;;;;5011810;28;20369;-59
2021/07/22 00:23:50;;;;;;;22.58;7.63;;;;;;;;;;5030803;28;20045;-58
2021/07/22 00:26:18;;;;;;;13.48;7.43;;;;;;;;;;5031308;28;20099;-59
2021/07/22 00:28:44;;;;;;;19.02;8.27;;;;;;;;;;5029587;28;20435;-59
2021/07/22 00:31:10;;;;;;;16.20;7.93;;;;;;;;;;5030855;28;20037;-59
2021/07/22 00:33:44;;;;;;;16.80;7.75;;;;;;;;;;5028999;28;20448;-59
2021/07/22 00:36:14;;;;;;;18.38;8.75;;;;;;;;;;5016553;28;20216;-58
2021/07/22 00:38:40;;;;;;;17.33;8.63;;;;;;;;;;5030905;28;20125;-59
2021/07/22 00:41:10;;;;;;;16.70;9.15;;;;;;;;;;5028984;28;20209;-58
2021/07/22 00:43:43;;;;;;;19.42;8.57;;;;;;;;;;5029389;28;20060;-58
2021/07/22 00:46:15;;;;;;;19.10;9.05;;;;;;;;;;5027612;28;20106;-59
2021/07/22 00:48:43;;;;;;;21.00;9.23;;;;;;;;;;5029583;28;20032;-57
2021/07/22 00:51:09;;;;;;;14.50;8.52;;;;;;;;;;5027717;28;20525;-58
2021/07/22 00:53:37;;;;;;;15.95;8.90;;;;;;;;;;5030500;28;20036;-59
2021/07/22 00:56:04;;;;;;;14.50;8.93;;;;;;;;;;5030764;28;20038;-58
2021/07/22 00:58:29;;;;;;;18.30;9.07;;;;;;;;;;5029647;28;20096;-58
2021/07/22 01:00:57;;;;;;;18.75;9.32;;;;;;;;;;5031465;28;20036;-58
2021/07/22 01:03:26;;;;;;;15.70;7.88;;;;;;;;;;5031765;28;20032;-59
2021/07/22 01:05:56;;;;;;;17.38;9.48;;;;;;;;;;5030473;28;20041;-59
2021/07/22 01:08:21;;;;;;;18.17;9.10;;;;;;;;;;5012209;28;20037;-59
2021/07/22 01:10:47;;;;;;;16.80;8.05;;;;;;;;;;5031281;28;20031;-59
2021/07/22 01:13:12;;;;;;;16.83;9.18;;;;;;;;;;5011212;28;20132;-58
2021/07/22 01:15:40;;;;;;;17.20;7.97;;;;;;;;;;5030948;28;20033;-58
2021/07/22 01:18:09;;;;;;;16.15;8.75;;;;;;;;;;5026980;28;20685;-60
2021/07/22 01:20:34;;;;;;;18.40;8.35;;;;;;;;;;5001039;28;20032;-59
2021/07/22 01:22:59;;;;;;;21.08;9.98;;;;;;;;;;5027092;28;20098;-58
2021/07/22 01:25:26;;;;;;;19.70;9.02;;;;;;;;;;5011035;28;20515;-59
2021/07/22 01:27:56;;;;;;;19.23;8.63;;;;;;;;;;5029065;28;20148;-58
2021/07/22 01:30:24;;;;;;;19.92;8.32;;;;;;;;;;5029219;28;20112;-58
2021/07/22 01:32:52;;;;;;;18.65;9.80;;;;;;;;;;5013365;28;20056;-59
2021/07/22 01:35:20;;;;;;;21.85;8.38;;;;;;;;;;5025933;28;20033;-59
2021/07/22 01:37:50;;;;;;;21.75;8.48;;;;;;;;;;5018466;28;21586;-59
2021/07/22 01:40:18;;;;;;;15.45;8.38;;;;;;;;;;5031005;28;20032;-58
2021/07/22 01:42:48;;;;;;;16.65;9.40;;;;;;;;;;5031445;28;20119;-59
2021/07/22 01:45:14;;;;;;;17.73;8.95;;;;;;;;;;5028926;28;20033;-58
2021/07/22 01:47:39;;;;;;;18.50;8.48;;;;;;;;;;5030854;28;20053;-58
2021/07/22 01:50:10;;;;;;;17.73;8.50;;;;;;;;;;5003657;28;20064;-59
2021/07/22 01:52:37;;;;;;;18.48;8.90;;;;;;;;;;5029212;28;20033;-59
2021/07/22 01:55:03;;;;;;;18.25;7.95;;;;;;;;;;5029121;28;20829;-59
2021/07/22 01:57:32;;;;;;;17.92;8.52;;;;;;;;;;5028925;28;20028;-59
2021/07/22 02:00:04;;;;;;;14.77;8.40;;;;;;;;;;5012976;28;20033;-59
2021/07/22 02:02:30;;;;;;;17.13;8.13;;;;;;;;;;5015446;28;20048;-59
2021/07/22 02:04:59;;;;;;;22.30;8.77;;;;;;;;;;5033195;28;20052;-59
2021/07/22 02:07:29;;;;;;;16.73;8.27;;;;;;;;;;5035717;28;20033;-58
2021/07/22 02:09:57;;;;;;;17.65;8.38;;;;;;;;;;5031487;28;20041;-59
2021/07/22 02:12:22;;;;;;;18.42;7.47;;;;;;;;;;5020451;28;21075;-58
2021/07/22 02:14:50;;;;;;;18.20;8.15;;;;;;;;;;5033732;28;20021;-60
2021/07/22 02:17:19;;;;;;;14.25;7.18;;;;;;;;;;5030974;28;20075;-58
2021/07/22 02:19:49;;;;;;;19.45;7.93;;;;;;;;;;5033037;28;20033;-60
2021/07/22 02:22:17;;;;;;;14.43;7.32;;;;;;;;;;5035586;28;20029;-60
2021/07/22 02:24:47;;;;;;;14.65;7.53;;;;;;;;;;5033382;28;20036;-58
2021/07/22 02:27:14;;;;;;;17.70;7.20;;;;;;;;;;5033048;28;20031;-59
2021/07/22 02:29:42;;;;;;;14.20;7.13;;;;;;;;;;4999554;28;20036;-58
2021/07/22 02:32:08;;;;;;;13.88;6.78;;;;;;;;;;5031625;28;20126;-60
2021/07/22 02:34:36;;;;;;;15.07;7.20;;;;;;;;;;5030169;28;20033;-59
2021/07/22 02:37:07;;;;;;;14.55;6.80;;;;;;;;;;5032562;28;20021;-58
2021/07/22 02:39:38;;;;;;;17.77;6.80;;;;;;;;;;5019981;28;20590;-59
2021/07/22 02:42:04;;;;;;;15.05;6.18;;;;;;;;;;4997204;28;20037;-58
2021/07/22 02:44:39;;;;;;;12.68;6.60;;;;;;;;;;5029422;28;20025;-58
2021/07/22 02:47:09;;;;;;;12.63;6.55;;;;;;;;;;5029725;28;20045;-58
2021/07/22 02:49:35;;;;;;;12.95;6.15;;;;;;;;;;5033208;28;20037;-59
2021/07/22 02:52:03;;;;;;;14.32;5.97;;;;;;;;;;5032951;28;20057;-58
2021/07/22 02:54:30;;;;;;;10.18;5.45;;;;;;;;;;5030899;28;20025;-61
2021/07/22 02:56:56;;;;;;;10.27;6.38;;;;;;;;;;5015871;28;22081;-58
2021/07/22 02:59:21;;;;;;;9.35;5.45;;;;;;;;;;5014512;28;20939;-58
2021/07/22 03:01:47;;;;;;;13.95;5.53;;;;;;;;;;5028730;28;20033;-58
2021/07/22 03:04:12;;;;;;;11.80;5.78;;;;;;;;;;5013177;28;20091;-58
2021/07/22 03:06:39;;;;;;;11.27;6.30;;;;;;;;;;5016099;28;20515;-58
2021/07/22 03:09:06;;;;;;;11.88;6.20;;;;;;;;;;5028964;28;20468;-60
2021/07/22 03:11:34;;;;;;;10.88;5.95;;;;;;;;;;5032478;28;20697;-61
2021/07/22 03:14:01;;;;;;;11.63;5.85;;;;;;;;;;5031191;28;21604;-59
2021/07/22 03:16:26;;;;;;;12.48;6.30;;;;;;;;;;5031472;28;20503;-59
2021/07/22 03:18:52;;;;;;;13.90;6.55;;;;;;;;;;5031425;28;20036;-58
2021/07/22 03:21:19;;;;;;;14.88;6.30;;;;;;;;;;5012940;28;20021;-58
2021/07/22 03:23:45;;;;;;;15.10;6.35;;;;;;;;;;5032314;28;20865;-58
2021/07/22 03:26:15;;;;;;;9.85;5.75;;;;;;;;;;5029949;28;20036;-59
2021/07/22 03:28:41;;;;;;;14.10;5.30;;;;;;;;;;5029812;28;20048;-59
2021/07/22 03:31:07;;;;;;;9.10;5.55;;;;;;;;;;5030815;28;20037;-58
2021/07/22 03:33:34;;;;;;;14.68;5.93;;;;;;;;;;5012080;28;20048;-58
2021/07/22 03:36:01;;;;;;;9.05;5.28;;;;;;;;;;5031328;28;20052;-59
2021/07/22 03:38:29;;;;;;;8.48;5.00;;;;;;;;;;5026231;28;20147;-59
2021/07/22 03:40:55;;;;;;;9.48;4.90;;;;;;;;;;5030923;28;21017;-58
2021/07/22 03:43:29;;;;;;;16.50;6.07;;;;;;;;;;5031480;28;20645;-58
2021/07/22 03:45:58;;;;;;;11.85;5.85;;;;;;;;;;5017399;28;20048;-58
2021/07/22 03:48:26;;;;;;;12.23;5.85;;;;;;;;;;5031750;28;20024;-58
2021/07/22 03:54:27;;;;;;;10.35;5.07;;;;;;;;;;5030340;28;20063;-58
2021/07/22 03:56:52;;;;;;;7.72;4.60;;;;;;;;;;5013183;28;20128;-59
2021/07/22 03:59:20;;;;;;;13.57;4.88;;;;;;;;;;5030601;28;20035;-58
2021/07/22 04:01:48;;;;;;;8.80;4.25;;;;;;;;;;5032783;28;20051;-59
2021/07/22 04:04:13;;;;;;;10.10;3.80;;;;;;;;;;5004403;28;20048;-59
2021/07/22 04:06:41;;;;;;;9.60;4.63;;;;;;;;;;5028816;28;20025;-59
2021/07/22 04:09:09;;;;;;;10.27;4.82;;;;;;;;;;5014185;28;20033;-59
2021/07/22 04:11:37;;;;;;;12.23;4.55;;;;;;;;;;5029842;28;20025;-59
2021/07/22 04:14:06;;;;;;;7.25;4.68;;;;;;;;;;5032353;28;20941;-59
2021/07/22 04:16:33;;;;;;;11.27;4.60;;;;;;;;;;5031018;28;20031;-59
2021/07/22 04:18:59;;;;;;;8.25;4.20;;;;;;;;;;5029588;28;20038;-58
2021/07/22 04:21:25;;;;;;;7.40;4.20;;;;;;;;;;5013571;28;20040;-59
2021/07/22 04:23:52;;;;;;;9.10;4.78;;;;;;;;;;5030908;28;20794;-59
2021/07/22 04:26:18;;;;;;;8.85;4.35;;;;;;;;;;5030977;28;20055;-58
2021/07/22 04:28:48;;;;;;;11.15;5.20;;;;;;;;;;5010163;28;20032;-59
2021/07/22 04:31:16;;;;;;;9.27;4.25;;;;;;;;;;5031053;28;20842;-59
2021/07/22 04:33:49;;;;;;;7.45;4.00;;;;;;;;;;5031007;28;20155;-59
2021/07/22 04:39:53;;;;;;;9.18;4.38;;;;;;;;;;5032437;28;20118;-59
2021/07/22 04:42:18;;;;;;;8.10;4.70;;;;;;;;;;5031642;28;20133;-59
2021/07/22 04:45:08;;;;;;;10.48;4.32;;;;;;;;;;5031575;28;20815;-59
2021/07/22 04:48:12;;;;;;;8.70;4.50;;;;;;;;;;5017402;28;20785;-59
2021/07/22 04:50:38;;;;;;;7.90;4.13;;;;;;;;;;4999482;28;20047;-59
2021/07/22 04:53:06;;;;;;;6.95;3.83;;;;;;;;;;5012647;28;20532;-59
2021/07/22 04:55:31;;;;;;;9.93;4.13;;;;;;;;;;5028366;28;20106;-59
2021/07/22 04:58:00;;;;;;;7.68;3.78;;;;;;;;;;5032247;28;22020;-59
2021/07/22 05:00:28;;;;;;;12.23;3.75;;;;;;;;;;5024289;28;20349;-59
2021/07/22 05:03:00;;;;;;;7.15;3.63;;;;;;;;;;5030844;28;20044;-59
2021/07/22 05:05:26;;;;;;;8.00;3.70;;;;;;;;;;5028630;28;20045;-58
2021/07/22 05:07:54;;;;;;;4.63;3.63;;;;;;;;;;5032039;28;20053;-58
2021/07/22 05:10:22;;;;;;;7.22;3.70;;;;;;;;;;5014832;28;20542;-58
2021/07/22 05:16:23;;;;;;;5.03;3.70;;;;;;;;;;5031228;28;20116;-58
2021/07/22 05:18:51;;;;;;;6.35;3.40;;;;;;;;;;5027190;28;20024;-58
2021/07/22 05:21:19;;;;;;;8.32;3.55;;;;;;;;;;5028224;28;20048;-58
2021/07/22 05:23:45;;;;;;;8.20;3.95;;;;;;;;;;5011286;28;20032;-58
2021/07/22 05:26:10;;;;;;;6.68;3.83;;;;;;;;;;5028427;28;20753;-58
2021/07/22 05:28:39;;;;;;;4.93;3.17;;;;;;;;;;5031945;28;20029;-59
2021/07/22 05:31:08;;;;;;;8.30;3.80;;;;;;;;;;5029074;28;20169;-59
2021/07/22 05:33:36;;;;;;;5.85;3.33;;;;;;;;;;5028604;28;20029;-59
2021/07/22 05:36:03;;;;;;;10.23;3.20;;;;;;;;;;5028882;28;20029;-59
2021/07/22 05:38:35;;;;;;;5.63;3.45;;;;;;;;;;5029694;28;20071;-60
2021/07/22 05:41:04;;;;;;;4.50;3.08;;;;;;;;;;5032060;28;20108;-59
2021/07/22 05:43:32;;;;;;;4.93;2.70;;;;;;;;;;5030143;28;20657;-58
2021/07/22 05:49:49;;;;;;;4.28;2.95;;;;;;;;;;4983826;28;20510;-59
2021/07/22 05:52:30;;;;;;;4.35;2.80;;;;;;;;;;4984661;28;20049;-59
2021/07/22 05:54:56;;;;;;;5.95;2.85;;;;;;;;;;4960966;28;20030;-59
2021/07/22 06:00:57;;;;;;;5.00;2.53;;;;;;;;;;4983490;28;20084;-59
2021/07/22 06:03:23;;;;;;;6.35;2.97;;;;;;;;;;4984925;28;20907;-59
2021/07/22 06:05:48;;;;;;;7.45;2.92;;;;;;;;;;4984610;28;20037;-59
2021/07/22 06:08:16;;;;;;;5.20;2.83;;;;;;;;;;4984669;28;20064;-58
2021/07/22 06:10:44;;;;;;;6.28;2.55;;;;;;;;;;4984881;28;20125;-59
2021/07/22 06:13:10;;;;;;;4.10;2.75;;;;;;;;;;4967662;28;20626;-59
2021/07/22 06:15:40;;;;;;;3.83;2.40;;;;;;;;;;4967928;28;20118;-59
2021/07/22 06:18:08;;;;;;;3.78;1.95;;;;;;;;;;4978271;28;20032;-59
2021/07/22 06:20:55;;;;;;;7.18;2.00;;;;;;;;;;4967021;28;20040;-59
2021/07/22 06:23:21;;;;;;;4.65;2.10;;;;;;;;;;4982897;28;20033;-59
2021/07/22 06:29:31;;;;;;;6.95;2.38;;;;;;;;;;4983047;28;20038;-59
2021/07/22 06:31:57;;;;;;;5.53;2.10;;;;;;;;;;4948559;28;20048;-59
2021/07/22 06:34:22;;;;;;;4.40;1.98;;;;;;;;;;4970998;28;20034;-59
2021/07/22 06:36:53;;;;;;;2.47;2.22;;;;;;;;;;4982033;28;20054;-59
2021/07/22 06:39:18;;;;;;;2.83;1.67;;;;;;;;;;4969382;28;20049;-60
2021/07/22 06:41:55;;;;;;;2.05;1.75;;;;;;;;;;4984618;28;20038;-60
2021/07/22 06:44:21;;;;;;;5.35;1.52;;;;;;;;;;4981985;28;20049;-59
2021/07/22 06:46:48;;;;;;;3.20;1.88;;;;;;;;;;4961204;28;20683;-59
2021/07/22 06:49:15;;;;;;;5.90;2.13;;;;;;;;;;5025086;28;20179;-59
2021/07/22 06:55:08;;;;;;;2.45;1.45;;;;;;;;;;5030949;28;20056;-59
2021/07/22 07:01:11;;;;;;;3.10;1.45;;;;;;;;;;5032932;28;20040;-60
2021/07/22 07:03:38;;;;;;;3.17;1.63;;;;;;;;;;5031600;28;20037;-58
2021/07/22 07:06:09;;;;;;;3.60;1.90;;;;;;;;;;5030574;28;20062;-58
2021/07/22 07:08:37;;;;;;;4.03;1.52;;;;;;;;;;5030905;28;20548;-59
2021/07/22 07:11:08;;;;;;;4.55;1.60;;;;;;;;;;5010366;28;20092;-59
2021/07/22 07:13:36;;;;;;;2.25;1.33;;;;;;;;;;5028342;28;20144;-59
2021/07/22 07:16:04;;;;;;;3.92;1.15;;;;;;;;;;5012052;28;20033;-59
2021/07/22 07:18:37;;;;;;;4.35;1.63;;;;;;;;;;5029462;28;20040;-59
2021/07/22 07:21:03;;;;;;;1.85;1.13;;;;;;;;;;5030425;28;20044;-59
2021/07/22 07:23:32;;;;;;;4.72;1.50;;;;;;;;;;5031500;28;20025;-59
2021/07/22 07:26:25;;;;;;;3.40;1.48;;;;;;;;;;5031403;28;20029;-60
2021/07/22 07:28:53;;;;;;;3.67;1.50;;;;;;;;;;5030771;28;20044;-60
2021/07/22 07:34:57;;;;;;;2.55;1.65;;;;;;;;;;5031954;28;20692;-60
2021/07/22 07:37:25;;;;;;;1.48;1.38;;;;;;;;;;5031554;28;20044;-59
2021/07/22 07:39:53;;;;;;;4.10;1.63;;;;;;;;;;5010407;28;20128;-59
2021/07/22 07:42:22;;;;;;;3.53;1.73;;;;;;;;;;5031325;28;20047;-59
2021/07/22 07:45:14;;;;;;;2.85;1.48;;;;;;;;;;5028321;28;20048;-59
2021/07/22 07:47:42;;;;;;;3.95;1.75;;;;;;;;;;5017148;28;20559;-59
2021/07/22 07:50:09;;;;;;;2.70;1.50;;;;;;;;;;5025655;28;20040;-59
2021/07/22 07:52:36;;;;;;;3.50;1.23;;;;;;;;;;5031709;28;20036;-59
2021/07/22 07:55:21;;;;;;;2.90;1.25;;;;;;;;;;5030520;28;20915;-60
2021/07/22 07:57:50;;;;;;;2.65;1.20;;;;;;;;;;5016283;28;20048;-61
2021/07/22 08:00:18;;;;;;;4.45;1.50;;;;;;;;;;5028936;28;20057;-60
2021/07/22 08:02:48;;;;;;;2.38;1.50;;;;;;;;;;5031415;28;20044;-60
2021/07/22 08:05:16;;;;;;;1.73;1.27;;;;;;;;;;5029762;28;20032;-60
2021/07/22 08:07:42;;;;;;;1.80;1.27;;;;;;;;;;5012017;28;20037;-60
2021/07/22 08:10:11;;;;;;;2.53;1.13;;;;;;;;;;5029017;28;20037;-61
2021/07/22 08:12:42;;;;;;;2.65;1.60;;;;;;;;;;5029536;28;20052;-60
2021/07/22 08:15:08;;;;;;;4.20;1.17;;;;;;;;;;5031178;28;20099;-60
2021/07/22 08:17:34;;;;;;;2.90;1.48;;;;;;;;;;5030204;28;20078;-60
2021/07/22 08:20:02;;;;;;;3.92;1.42;;;;;;;;;;5029974;28;20092;-61
2021/07/22 08:22:28;;;;;;;3.63;1.30;;;;;;;;;;5027080;28;20106;-60
2021/07/22 08:24:58;;;;;;;5.35;1.27;;;;;;;;;;5020533;28;20044;-60
2021/07/22 08:27:26;;;;;;;3.58;1.30;;;;;;;;;;5028519;28;20102;-60
2021/07/22 08:29:53;;;;;;;4.70;1.40;;;;;;;;;;5012223;28;20040;-60
2021/07/22 08:32:21;;;;;;;3.22;1.52;;;;;;;;;;5000910;28;20033;-60
2021/07/22 08:38:22;;;;;;;1.77;1.13;;;;;;;;;;5030897;28;20104;-62
2021/07/22 08:40:48;;;;;;;1.88;1.25;;;;;;;;;;5030254;28;20028;-61
2021/07/22 08:43:16;;;;;;;4.82;1.23;;;;;;;;;;5015811;28;20047;-61
2021/07/22 08:45:48;;;;;;;2.28;1.08;;;;;;;;;;5029220;28;20028;-60
2021/07/22 08:48:14;;;;;;;5.95;1.15;;;;;;;;;;5029021;28;20111;-60
2021/07/22 08:51:01;;;;;;;3.17;1.17;;;;;;;;;;5011737;28;20040;-61
2021/07/22 08:53:27;;;;;;;2.03;0.93;;;;;;;;;;5010213;28;20051;-60
2021/07/22 08:59:03;;;;;;;1.00;0.90;;;;;;;;;;5029565;28;20032;-61
2021/07/22 09:01:31;;;;;;;2.20;0.77;;;;;;;;;;5010581;28;20032;-60
2021/07/22 09:03:58;;;;;;;2.55;0.95;;;;;;;;;;5016577;28;20407;-60
2021/07/22 09:06:27;;;;;;;2.80;0.90;;;;;;;;;;5029332;28;20024;-61
2021/07/22 09:08:54;;;;;;;1.75;0.80;;;;;;;;;;5045387;28;20067;-61
2021/07/22 09:11:20;;;;;;;1.00;0.80;;;;;;;;;;5010318;28;20036;-61
2021/07/22 09:14:05;;;;;;;1.60;0.82;;;;;;;;;;5033577;28;20037;-60
2021/07/22 09:16:36;;;;;;;3.78;0.90;;;;;;;;;;5033129;28;20021;-59
2021/07/22 09:19:02;;;;;;;1.55;1.05;;;;;;;;;;5015260;28;20040;-60
2021/07/22 09:21:28;;;;;;;0.90;0.60;;;;;;;;;;5014159;28;20049;-60
2021/07/22 09:24:05;;;;;;;1.98;1.13;;;;;;;;;;5033985;28;20099;-60
2021/07/22 09:26:32;;;;;;;3.33;1.00;;;;;;;;;;5031679;28;20139;-60
2021/07/22 09:29:07;;;;;;;3.70;1.08;;;;;;;;;;5033334;28;20110;-60
2021/07/22 09:31:32;;;;;;;4.45;1.00;;;;;;;;;;5015728;28;20036;-59
2021/07/22 09:37:33;;;;;;;3.00;1.20;;;;;;;;;;5035251;28;20636;-61
2021/07/22 09:40:00;;;;;;;3.22;1.02;;;;;;;;;;5014176;28;20515;-61
2021/07/22 09:42:25;;;;;;;1.55;0.75;;;;;;;;;;5031837;28;20021;-61
2021/07/22 09:44:51;;;;;;;2.00;1.05;;;;;;;;;;5012003;28;20040;-60
2021/07/22 09:47:25;;;;;;;1.63;0.90;;;;;;;;;;5018138;28;20504;-62
2021/07/22 09:49:51;;;;;;;0.85;0.65;;;;;;;;;;5036618;28;20076;-61
2021/07/22 09:52:19;;;;;;;2.47;0.90;;;;;;;;;;5021846;28;21996;-60
2021/07/22 09:54:44;;;;;;;2.75;0.82;;;;;;;;;;5030913;28;20151;-60
2021/07/22 09:57:15;;;;;;;1.60;0.70;;;;;;;;;;5030591;28;20043;-62
2021/07/22 09:59:41;;;;;;;1.33;0.30;;;;;;;;;;5030806;28;20032;-60
2021/07/22 10:02:06;;;;;;;3.90;0.82;;;;;;;;;;5016418;28;20029;-60
2021/07/22 10:04:35;;;;;;;1.08;0.60;;;;;;;;;;5031343;28;20032;-60
2021/07/22 10:10:37;;;;;;;1.15;1.00;;;;;;;;;;5033754;28;20091;-60
2021/07/22 10:13:05;;;;;;;3.42;0.73;;;;;;;;;;5009425;28;20430;-60
2021/07/22 10:15:32;;;;;;;2.47;1.13;;;;;;;;;;5030500;28;20070;-62
2021/07/22 10:17:58;;;;;;;2.38;1.10;;;;;;;;;;5014849;28;20157;-61
2021/07/22 10:20:29;;;;;;;2.65;0.82;;;;;;;;;;5034097;28;20803;-61
2021/07/22 10:26:31;;;;;;;2.10;0.82;;;;;;;;;;5033005;28;20101;-62
2021/07/22 10:28:59;;;;;;;1.92;0.63;;;;;;;;;;5032485;28;20058;-62
2021/07/22 10:31:26;;;;;;;0.82;0.70;;;;;;;;;;5033981;28;20033;-60
2021/07/22 10:33:54;;;;;;;3.35;0.85;;;;;;;;;;5032181;28;20042;-60
2021/07/22 10:36:23;;;;;;;3.83;0.93;;;;;;;;;;5030476;28;20033;-60
2021/07/22 10:38:49;;;;;;;1.52;0.90;;;;;;;;;;5017304;28;20128;-60
2021/07/22 10:41:34;;;;;;;3.95;0.80;;;;;;;;;;5013557;28;20047;-60
2021/07/22 10:43:59;;;;;;;1.83;0.80;;;;;;;;;;5019548;28;20029;-61
2021/07/22 10:46:44;;;;;;;2.38;0.73;;;;;;;;;;5032699;28;20037;-62
2021/07/22 10:49:16;;;;;;;1.95;0.52;;;;;;;;;;5030635;28;20053;-60
2021/07/22 10:51:58;;;;;;;1.52;0.57;;;;;;;;;;5009518;28;20086;-59
2021/07/22 11:01:11;;;;;;;1.48;0.55;;;;;;;;;;5009027;28;20380;-60
2021/07/22 11:03:45;;;;;;;1.45;0.65;;;;;;;;;;5010309;28;20069;-61
2021/07/22 11:06:11;;;;;;;8.38;1.17;;;;;;;;;;5008855;28;20112;-60
2021/07/22 11:08:38;;;;;;;2.20;0.70;;;;;;;;;;4998985;28;20162;-60
2021/07/22 11:11:06;;;;;;;1.73;0.70;;;;;;;;;;5008084;28;20025;-60
2021/07/22 11:17:06;;;;;;;1.10;0.60;;;;;;;;;;5008642;28;20040;-60
2021/07/22 11:19:32;;;;;;;0.70;0.70;;;;;;;;;;4974955;28;20061;-60
2021/07/22 11:22:00;;;;;;;2.00;0.68;;;;;;;;;;4958347;28;20037;-61
2021/07/22 11:24:28;;;;;;;1.25;0.50;;;;;;;;;;4997214;28;21247;-60
2021/07/22 11:30:31;;;;;;;0.85;0.60;;;;;;;;;;5031302;28;20024;-61
2021/07/22 11:33:13;;;;;;;0.65;0.45;;;;;;;;;;5031575;28;20029;-61
2021/07/22 11:35:53;;;;;;;0.77;0.57;;;;;;;;;;5030699;28;20557;-61
2021/07/22 11:38:18;;;;;;;1.13;0.55;;;;;;;;;;5028457;28;20559;-60
2021/07/22 11:40:44;;;;;;;2.05;0.55;;;;;;;;;;5027681;28;20041;-61
2021/07/22 11:43:12;;;;;;;0.75;0.55;;;;;;;;;;5014866;28;20033;-61
2021/07/22 11:49:17;;;;;;;3.55;0.65;;;;;;;;;;5030812;28;20059;-60
2021/07/22 11:51:43;;;;;;;4.05;0.98;;;;;;;;;;5028776;28;20039;-60
2021/07/22 11:54:11;;;;;;;3.15;0.70;;;;;;;;;;5027623;28;20060;-60
2021/07/22 11:56:37;;;;;;;1.35;0.88;;;;;;;;;;5031471;28;20106;-61
2021/07/22 11:59:12;;;;;;;1.50;0.50;;;;;;;;;;5026778;28;20104;-61
2021/07/22 12:01:48;;;;;;;3.20;0.90;;;;;;;;;;5029615;28;20075;-61
2021/07/22 12:04:21;;;;;;;3.45;0.70;;;;;;;;;;5028268;28;20029;-60
2021/07/22 12:06:51;;;;;;;1.25;0.43;;;;;;;;;;5027938;28;20524;-60
2021/07/22 12:09:17;;;;;;;2.45;0.70;;;;;;;;;;5011599;28;20574;-60
2021/07/22 12:11:46;;;;;;;1.70;0.47;;;;;;;;;;4998213;28;20044;-60
2021/07/22 12:14:11;;;;;;;1.73;0.47;;;;;;;;;;5028636;28;20025;-60
2021/07/22 12:16:40;;;;;;;0.60;0.50;;;;;;;;;;5032466;28;20013;-61
2021/07/22 12:19:05;;;;;;;2.28;0.70;;;;;;;;;;5030101;28;20086;-61
2021/07/22 12:21:31;;;;;;;1.73;0.52;;;;;;;;;;5010760;28;20223;-60
2021/07/22 12:24:18;;;;;;;1.27;0.45;;;;;;;;;;5030652;28;20073;-61
2021/07/22 12:26:46;;;;;;;1.80;0.60;;;;;;;;;;5017291;28;20914;-60
2021/07/22 12:32:56;;;;;;;0.80;0.70;;;;;;;;;;5029418;28;20080;-59
2021/07/22 12:39:15;;;;;;;1.23;0.68;;;;;;;;;;5029273;28;20043;-60
2021/07/22 12:41:42;;;;;;;1.00;0.47;;;;;;;;;;5029891;28;20048;-60
2021/07/22 12:44:10;;;;;;;1.90;0.70;;;;;;;;;;5030394;28;20155;-60
2021/07/22 12:46:40;;;;;;;1.30;0.45;;;;;;;;;;5044321;28;20115;-60
2021/07/22 12:49:06;;;;;;;0.38;0.28;;;;;;;;;;5028569;28;20076;-60
2021/07/22 12:51:31;;;;;;;1.98;0.60;;;;;;;;;;4995737;28;20562;-60
2021/07/22 12:53:57;;;;;;;0.65;0.60;;;;;;;;;;5011154;28;20033;-60
2021/07/22 13:00:05;;;;;;;1.88;0.70;;;;;;;;;;5030291;28;21427;-60
2021/07/22 13:02:36;;;;;;;0.70;0.60;;;;;;;;;;5030488;28;20029;-60
2021/07/22 13:05:01;;;;;;;0.55;0.55;;;;;;;;;;5026606;28;20120;-60
2021/07/22 13:07:27;;;;;;;0.65;0.50;;;;;;;;;;5030763;28;20013;-60
2021/07/22 13:09:53;;;;;;;3.83;0.70;;;;;;;;;;5027518;28;20043;-60
2021/07/22 13:12:19;;;;;;;1.38;0.40;;;;;;;;;;5028875;28;20036;-60
2021/07/22 13:14:44;;;;;;;2.20;0.50;;;;;;;;;;5027886;28;20036;-60
2021/07/22 13:17:13;;;;;;;0.90;0.70;;;;;;;;;;5029141;28;20028;-61
2021/07/22 13:19:40;;;;;;;3.00;0.40;;;;;;;;;;5030759;28;20171;-60
2021/07/22 13:22:06;;;;;;;0.77;0.40;;;;;;;;;;5028432;28;20039;-61
2021/07/22 13:24:31;;;;;;;0.60;0.43;;;;;;;;;;5012105;28;20033;-61
2021/07/22 13:30:34;;;;;;;1.90;0.50;;;;;;;;;;5030506;28;20093;-60
2021/07/22 13:33:02;;;;;;;4.28;0.40;;;;;;;;;;5030684;28;20037;-61
2021/07/22 13:35:34;;;;;;;0.65;0.30;;;;;;;;;;5028635;28;20553;-60
2021/07/22 13:38:00;;;;;;;1.07;0.40;;;;;;;;;;5046529;28;20436;-61
2021/07/22 13:40:27;;;;;;;0.65;0.40;;;;;;;;;;5027252;28;20025;-61
2021/07/22 13:42:52;;;;;;;1.17;0.40;;;;;;;;;;5028038;28;20049;-61
2021/07/22 13:45:17;;;;;;;0.65;0.40;;;;;;;;;;5030112;28;20033;-61
2021/07/22 13:47:47;;;;;;;1.55;0.50;;;;;;;;;;5028295;28;20055;-60
2021/07/22 13:50:15;;;;;;;1.60;0.68;;;;;;;;;;5030120;28;20037;-60
2021/07/22 13:52:41;;;;;;;2.35;0.63;;;;;;;;;;5025364;28;20068;-60
2021/07/22 13:58:44;;;;;;;1.58;0.40;;;;;;;;;;5029617;28;20668;-60
2021/07/22 14:01:09;;;;;;;1.17;0.47;;;;;;;;;;5030305;28;20099;-59
2021/07/22 14:03:35;;;;;;;4.07;0.30;;;;;;;;;;5013441;28;20021;-60
2021/07/22 14:06:03;;;;;;;1.38;0.50;;;;;;;;;;5033192;28;20368;-60
2021/07/22 14:08:29;;;;;;;0.73;0.50;;;;;;;;;;5030536;28;20159;-60
2021/07/22 14:10:54;;;;;;;1.25;0.43;;;;;;;;;;5014345;28;20033;-60
2021/07/22 14:13:22;;;;;;;2.58;0.50;;;;;;;;;;5010072;28;20078;-60
2021/07/22 14:15:47;;;;;;;0.55;0.50;;;;;;;;;;5032306;28;20032;-59
2021/07/22 14:18:13;;;;;;;0.90;0.50;;;;;;;;;;5033530;28;20044;-60
2021/07/22 14:20:40;;;;;;;1.17;0.82;;;;;;;;;;5029770;28;20028;-60
2021/07/22 14:23:06;;;;;;;0.32;0.30;;;;;;;;;;5031686;28;20052;-60
2021/07/22 14:25:35;;;;;;;0.65;0.30;;;;;;;;;;5011502;28;20159;-61
2021/07/22 14:28:19;;;;;;;1.15;0.60;;;;;;;;;;5030777;28;20025;-60
2021/07/22 14:30:46;;;;;;;4.05;0.43;;;;;;;;;;5029667;28;20029;-60
2021/07/22 14:33:12;;;;;;;1.20;0.30;;;;;;;;;;5004770;28;20041;-60
2021/07/22 14:39:15;;;;;;;3.28;0.45;;;;;;;;;;5032701;28;20054;-60
2021/07/22 14:41:42;;;;;;;0.45;0.30;;;;;;;;;;4998382;28;20039;-61
2021/07/22 14:44:10;;;;;;;0.32;0.30;;;;;;;;;;5031586;28;20641;-61
2021/07/22 14:50:10;;;;;;;1.05;0.52;;;;;;;;;;5030803;28;20059;-60
2021/07/22 14:52:43;;;;;;;1.00;0.68;;;;;;;;;;5031250;28;20435;-60
2021/07/22 14:55:11;;;;;;;2.63;0.70;;;;;;;;;;5014538;28;20056;-61
2021/07/22 14:57:37;;;;;;;2.80;0.60;;;;;;;;;;5030983;28;20116;-59
2021/07/22 15:00:06;;;;;;;0.88;0.50;;;;;;;;;;5030938;28;20033;-60
2021/07/22 15:03:14;;;;;;;2.00;1.00;;;;;;;;;;5030543;28;20074;-59
2021/07/22 15:05:39;;;;;;;2.35;1.27;;;;;;;;;;5044722;28;20072;-59
2021/07/22 15:08:05;;;;;;;2.15;0.60;;;;;;;;;;5028478;28;20031;-59
2021/07/22 15:10:31;;;;;;;2.22;0.55;;;;;;;;;;5025921;28;20051;-59
2021/07/22 15:13:00;;;;;;;1.15;1.08;;;;;;;;;;5014664;28;20037;-58
2021/07/22 15:15:26;;;;;;;2.50;0.70;;;;;;;;;;5028850;28;20112;-59
2021/07/22 15:17:58;;;;;;;1.73;0.60;;;;;;;;;;5031927;28;20785;-58
2021/07/22 15:20:28;;;;;;;1.27;1.00;;;;;;;;;;5025296;28;20032;-58
2021/07/22 15:22:54;;;;;;;2.72;1.20;;;;;;;;;;5016444;28;20055;-60
2021/07/22 15:25:21;;;;;;;1.60;0.60;;;;;;;;;;5031737;28;20025;-59
2021/07/22 15:27:52;;;;;;;1.52;1.02;;;;;;;;;;5030387;28;20040;-58
2021/07/22 15:30:23;;;;;;;2.70;1.27;;;;;;;;;;5031181;28;21164;-61
2021/07/22 15:32:49;;;;;;;2.28;1.20;;;;;;;;;;5014310;28;20079;-58
2021/07/22 15:35:19;;;;;;;2.55;0.90;;;;;;;;;;5011897;28;20487;-58
2021/07/22 15:37:45;;;;;;;1.23;1.13;;;;;;;;;;5033199;28;20891;-60
2021/07/22 15:40:16;;;;;;;0.70;0.70;;;;;;;;;;5031064;28;20025;-59
2021/07/22 15:42:41;;;;;;;4.25;1.42;;;;;;;;;;5031600;28;20072;-60
2021/07/22 15:45:10;;;;;;;9.63;2.22;;;;;;;;;;5029294;28;20035;-59
2021/07/22 15:50:41;;;;;;;1.05;1.00;;;;;;;;;;5030134;28;20748;-60
2021/07/22 15:53:07;;;;;;;3.10;0.90;;;;;;;;;;5002227;28;20051;-58
2021/07/22 15:55:36;;;;;;;3.25;1.17;;;;;;;;;;5017928;28;20025;-58
2021/07/22 15:58:03;;;;;;;3.85;1.45;;;;;;;;;;5030941;28;20050;-59
2021/07/22 16:00:31;;;;;;;2.22;0.93;;;;;;;;;;4999049;28;20935;-58
2021/07/22 16:02:58;;;;;;;4.97;1.25;;;;;;;;;;5029666;28;20551;-58
2021/07/22 16:05:23;;;;;;;3.13;1.05;;;;;;;;;;5002269;28;20044;-59
2021/07/22 16:07:51;;;;;;;2.65;0.95;;;;;;;;;;5029891;28;20153;-59
2021/07/22 16:10:19;;;;;;;2.08;1.00;;;;;;;;;;5032111;28;20036;-58
2021/07/22 16:12:45;;;;;;;4.70;1.17;;;;;;;;;;5031904;28;22089;-58
2021/07/22 16:15:12;;;;;;;3.05;2.08;;;;;;;;;;5031475;28;20096;-59
2021/07/22 16:17:39;;;;;;;5.63;3.92;;;;;;;;;;5030266;28;20566;-59
2021/07/22 16:20:05;;;;;;;3.65;1.65;;;;;;;;;;5028437;28;20032;-59
2021/07/22 16:22:36;;;;;;;3.90;1.17;;;;;;;;;;5000778;28;20028;-59